createdAt,value
2022-09-25T00:02:10.381Z,63.31
2022-09-25T00:04:38.216Z,63.27
2022-09-25T00:07:07.196Z,63.36
2022-09-25T00:09:36.279Z,63.35
2022-09-25T00:12:03.978Z,63.43
2022-09-25T00:14:33.321Z,63.37
2022-09-25T00:17:02.592Z,63.32
2022-09-25T00:19:50.314Z,63.39
2022-09-25T00:22:24.813Z,63.40
2022-09-25T00:24:52.761Z,63.49
2022-09-25T00:27:20.513Z,63.53
2022-09-25T00:29:48.449Z,63.53
2022-09-25T00:32:16.194Z,63.49
2022-09-25T00:34:46.241Z,63.61
2022-09-25T00:37:14.273Z,63.66
2022-09-25T00:39:42.227Z,63.57
2022-09-25T00:42:14.376Z,63.67
2022-09-25T00:45:02.827Z,63.72
2022-09-25T00:47:44.643Z,63.64
2022-09-25T00:50:28.486Z,63.69
2022-09-25T00:53:06.869Z,63.72
2022-09-25T00:55:38.238Z,63.78
2022-09-25T00:58:08.584Z,63.79
2022-09-25T01:00:36.370Z,63.76
2022-09-25T01:03:07.489Z,63.60
2022-09-25T01:05:43.711Z,63.83
2022-09-25T01:08:18.541Z,63.87
2022-09-25T01:10:48.786Z,63.84
2022-09-25T01:13:19.400Z,63.86
2022-09-25T01:15:53.335Z,63.85
2022-09-25T01:18:46.390Z,63.92
2022-09-25T01:21:56.436Z,64.01
2022-09-25T01:24:40.930Z,64.12
2022-09-25T01:27:51.508Z,63.97
2022-09-25T01:30:21.436Z,64.13
2022-09-25T01:33:05.929Z,64.23
2022-09-25T01:35:40.021Z,64.23
2022-09-25T01:38:40.054Z,64.31
2022-09-25T01:41:23.990Z,64.11
2022-09-25T01:44:02.310Z,64.05
2022-09-25T01:46:45.214Z,63.94
2022-09-25T01:49:33.931Z,64.28
2022-09-25T01:52:12.626Z,64.31
2022-09-25T01:54:53.910Z,64.41
2022-09-25T01:57:34.048Z,64.48
2022-09-25T02:00:14.393Z,64.49
2022-09-25T02:03:02.943Z,64.54
2022-09-25T02:05:45.021Z,64.61
2022-09-25T02:08:25.325Z,64.52
2022-09-25T02:11:00.607Z,64.69
2022-09-25T02:13:47.163Z,64.74
2022-09-25T02:16:34.899Z,64.67
2022-09-25T02:19:25.506Z,64.68
2022-09-25T02:22:10.047Z,64.78
2022-09-25T02:25:13.794Z,64.66
2022-09-25T02:27:45.727Z,64.84
2022-09-25T02:30:17.638Z,64.64
2022-09-25T02:32:45.454Z,64.66
2022-09-25T02:35:13.365Z,64.81
2022-09-25T02:37:43.294Z,64.76
2022-09-25T02:40:15.213Z,64.85
2022-09-25T02:43:13.445Z,64.96
2022-09-25T02:46:10.736Z,65.05
2022-09-25T02:49:06.173Z,64.97
2022-09-25T02:52:20.542Z,64.84
2022-09-25T02:55:06.838Z,64.98
2022-09-25T02:57:57.066Z,64.87
2022-09-25T03:00:27.471Z,64.90
2022-09-25T03:03:00.724Z,65.03
2022-09-25T03:05:28.909Z,65.06
2022-09-25T03:08:23.406Z,65.09
2022-09-25T03:10:55.518Z,65.15
2022-09-25T03:13:32.112Z,65.19
2022-09-25T03:16:08.237Z,65.18
2022-09-25T03:18:36.264Z,65.10
2022-09-25T03:21:08.358Z,65.26
2022-09-25T03:23:39.430Z,65.18
2022-09-25T03:26:11.634Z,65.26
2022-09-25T03:28:39.730Z,65.21
2022-09-25T03:31:13.086Z,65.26
2022-09-25T03:33:45.878Z,65.26
2022-09-25T03:36:22.077Z,65.37
2022-09-25T03:38:59.160Z,65.34
2022-09-25T03:41:35.409Z,65.38
2022-09-25T03:44:05.492Z,65.30
2022-09-25T03:46:38.556Z,65.48
2022-09-25T03:49:11.113Z,65.47
2022-09-25T03:51:39.953Z,65.61
2022-09-25T03:54:07.906Z,65.57
2022-09-25T03:56:41.869Z,65.53
2022-09-25T03:59:09.801Z,65.58
2022-09-25T04:01:43.379Z,65.47
2022-09-25T04:04:11.410Z,65.53
2022-09-25T04:06:43.201Z,65.59
2022-09-25T04:09:16.994Z,65.70
2022-09-25T04:11:49.034Z,65.54
2022-09-25T04:14:16.981Z,65.58
2022-09-25T04:16:49.156Z,65.63
2022-09-25T04:19:20.926Z,65.73
2022-09-25T04:21:52.582Z,65.81
2022-09-25T04:24:39.326Z,65.78
2022-09-25T04:27:14.528Z,65.83
2022-09-25T04:29:46.388Z,65.78
2022-09-25T04:32:34.085Z,65.69
2022-09-25T04:35:02.392Z,65.85
2022-09-25T04:37:30.931Z,65.79
2022-09-25T04:40:01.406Z,65.85
2022-09-25T04:42:29.193Z,65.88
2022-09-25T04:45:01.131Z,66.01
2022-09-25T04:47:32.835Z,66.06
2022-09-25T04:50:00.519Z,66.15
2022-09-25T04:52:32.275Z,66.19
2022-09-25T04:55:02.899Z,66.03
2022-09-25T04:57:57.232Z,65.97
2022-09-25T05:00:34.714Z,66.02
2022-09-25T05:03:09.531Z,66.03
2022-09-25T05:05:42.272Z,66.01
2022-09-25T05:08:14.274Z,66.10
2022-09-25T05:10:45.357Z,66.16
2022-09-25T05:13:13.295Z,66.18
2022-09-25T05:15:41.010Z,66.32
2022-09-25T05:18:21.398Z,66.25
2022-09-25T05:20:54.316Z,66.38
2022-09-25T05:23:26.162Z,66.29
2022-09-25T05:26:02.301Z,66.49
2022-09-25T05:28:37.460Z,66.63
2022-09-25T05:31:09.826Z,66.46
2022-09-25T05:33:37.607Z,66.36
2022-09-25T05:36:13.447Z,66.48
2022-09-25T05:38:41.392Z,66.67
2022-09-25T05:41:15.221Z,66.69
2022-09-25T05:43:47.965Z,66.88
2022-09-25T05:46:19.704Z,66.81
2022-09-25T05:48:47.798Z,66.78
2022-09-25T05:51:17.963Z,66.89
2022-09-25T05:53:47.702Z,66.79
2022-09-25T05:56:20.601Z,66.80
2022-09-25T05:58:53.048Z,66.83
2022-09-25T06:01:25.104Z,66.92
2022-09-25T06:03:52.983Z,66.88
2022-09-25T06:06:27.470Z,67.00
2022-09-25T06:08:57.416Z,67.07
2022-09-25T06:11:25.187Z,67.05
2022-09-25T06:13:57.890Z,67.10
2022-09-25T06:16:26.208Z,67.09
2022-09-25T06:18:55.284Z,67.05
2022-09-25T06:21:28.106Z,67.13
2022-09-25T06:23:58.558Z,67.06
2022-09-25T06:26:26.332Z,67.18
2022-09-25T06:29:02.848Z,67.18
2022-09-25T06:31:39.370Z,67.28
2022-09-25T06:34:12.830Z,67.14
2022-09-25T06:36:40.775Z,67.22
2022-09-25T06:39:10.670Z,67.28
2022-09-25T06:41:45.049Z,67.30
2022-09-25T06:44:13.154Z,67.25
2022-09-25T06:46:45.638Z,67.35
2022-09-25T06:49:18.538Z,67.32
2022-09-25T06:51:47.293Z,67.31
2022-09-25T06:54:15.912Z,67.33
2022-09-25T06:56:50.630Z,67.41
2022-09-25T06:59:19.978Z,67.36
2022-09-25T07:01:47.798Z,67.39
2022-09-25T07:04:15.741Z,67.42
2022-09-25T07:06:43.700Z,67.36
2022-09-25T07:09:13.052Z,67.35
2022-09-25T07:11:48.853Z,67.38
2022-09-25T07:14:16.553Z,67.37
2022-09-25T07:16:44.475Z,67.39
2022-09-25T07:19:12.159Z,67.34
2022-09-25T07:21:40.104Z,67.31
2022-09-25T07:24:09.495Z,67.33
2022-09-25T07:26:44.581Z,67.32
2022-09-25T07:29:14.351Z,67.16
2022-09-25T07:31:44.799Z,67.35
2022-09-25T07:34:16.629Z,67.26
2022-09-25T07:36:45.311Z,67.40
2022-09-25T07:39:18.151Z,67.34
2022-09-25T07:41:48.037Z,67.15
2022-09-25T07:44:29.182Z,67.14
2022-09-25T07:47:07.658Z,67.33
2022-09-25T07:49:35.728Z,67.23
2022-09-25T07:52:10.380Z,67.25
2022-09-25T07:54:42.210Z,67.24
2022-09-25T07:57:11.867Z,67.21
2022-09-25T07:59:42.452Z,67.19
2022-09-25T08:02:10.262Z,67.18
2022-09-25T08:04:38.645Z,67.17
2022-09-25T08:07:08.515Z,67.15
2022-09-25T08:09:36.489Z,67.11
2022-09-25T08:12:04.884Z,66.94
2022-09-25T08:14:35.097Z,67.00
2022-09-25T08:17:02.788Z,66.88
2022-09-25T08:19:34.691Z,66.89
2022-09-25T08:22:08.502Z,66.88
2022-09-25T08:24:40.363Z,66.82
2022-09-25T08:27:08.363Z,66.80
2022-09-25T08:29:38.502Z,66.73
2022-09-25T08:32:10.152Z,66.57
2022-09-25T08:34:44.286Z,66.29
2022-09-25T08:37:12.466Z,66.27
2022-09-25T08:39:44.352Z,66.17
2022-09-25T08:42:36.317Z,66.17
2022-09-25T08:45:43.163Z,66.17
2022-09-25T08:49:01.225Z,66.05
2022-09-25T08:51:38.766Z,66.08
2022-09-25T08:54:09.222Z,65.83
2022-09-25T08:56:40.511Z,66.04
2022-09-25T08:59:44.383Z,65.84
2022-09-25T09:02:45.710Z,65.51
2022-09-25T09:05:36.330Z,65.34
2022-09-25T09:08:11.639Z,65.57
2022-09-25T09:11:14.105Z,65.68
2022-09-25T09:13:55.089Z,65.36
2022-09-25T09:16:23.177Z,65.12
2022-09-25T09:18:55.800Z,64.98
2022-09-25T09:21:54.716Z,64.81
2022-09-25T09:24:27.429Z,64.46
2022-09-25T09:27:04.341Z,64.22
2022-09-25T09:30:09.347Z,64.03
2022-09-25T09:33:06.383Z,63.62
2022-09-25T09:36:11.817Z,63.49
2022-09-25T09:38:59.647Z,63.57
2022-09-25T09:41:52.180Z,63.47
2022-09-25T09:45:09.248Z,63.27
2022-09-25T09:48:13.575Z,63.15
2022-09-25T09:50:53.366Z,62.73
2022-09-25T09:53:48.939Z,62.63
2022-09-25T09:56:31.484Z,62.38
2022-09-25T09:59:29.761Z,62.05
2022-09-25T10:02:24.064Z,62.17
2022-09-25T10:04:56.315Z,61.79
2022-09-25T10:07:28.481Z,61.98
2022-09-25T10:09:57.801Z,61.58
2022-09-25T10:12:34.932Z,61.61
2022-09-25T10:15:07.844Z,61.27
2022-09-25T10:17:38.140Z,61.20
2022-09-25T10:20:19.725Z,60.76
2022-09-25T10:22:53.218Z,60.75
2022-09-25T10:25:37.565Z,60.62
2022-09-25T10:28:28.507Z,60.64
2022-09-25T10:30:58.555Z,60.27
2022-09-25T10:33:30.304Z,60.24
2022-09-25T10:35:59.055Z,60.16
2022-09-25T10:38:53.423Z,59.88
2022-09-25T10:41:27.703Z,59.75
2022-09-25T10:44:00.188Z,59.67
2022-09-25T10:46:50.045Z,59.58
2022-09-25T10:49:41.600Z,59.29
2022-09-25T10:52:13.102Z,59.27
2022-09-25T10:54:45.460Z,59.10
2022-09-25T10:57:34.693Z,58.97
2022-09-25T11:00:07.741Z,58.99
2022-09-25T11:02:41.064Z,58.95
2022-09-25T11:05:20.284Z,58.75
2022-09-25T11:07:52.730Z,58.61
2022-09-25T11:10:35.977Z,58.53
2022-09-25T11:13:09.563Z,58.66
2022-09-25T11:15:39.508Z,58.43
2022-09-25T11:18:32.997Z,58.42
2022-09-25T11:21:03.564Z,58.20
2022-09-25T11:23:36.049Z,58.22
2022-09-25T11:26:19.188Z,58.26
2022-09-25T11:29:04.965Z,58.16
2022-09-25T11:31:41.360Z,58.07
2022-09-25T11:34:40.630Z,58.26
2022-09-25T11:37:24.857Z,58.09
2022-09-25T11:40:46.631Z,58.22
2022-09-25T11:43:25.853Z,58.04
2022-09-25T11:46:03.173Z,58.08
2022-09-25T11:48:46.929Z,58.06
2022-09-25T11:51:37.553Z,57.94
2022-09-25T11:54:33.820Z,57.79
2022-09-25T11:57:18.208Z,57.80
2022-09-25T12:00:04.664Z,57.76
2022-09-25T12:03:08.281Z,57.76
2022-09-25T12:05:57.066Z,57.57
2022-09-25T12:08:36.063Z,57.72
2022-09-25T12:11:12.897Z,57.65
2022-09-25T12:14:17.253Z,57.53
2022-09-25T12:17:05.265Z,57.63
2022-09-25T12:20:11.963Z,57.72
2022-09-25T12:23:05.730Z,57.71
2022-09-25T12:26:03.635Z,57.60
2022-09-25T12:28:42.700Z,57.79
2022-09-25T12:31:30.890Z,57.74
2022-09-25T12:34:28.103Z,57.79
2022-09-25T12:37:27.388Z,57.81
2022-09-25T12:40:05.506Z,57.80
2022-09-25T12:42:57.679Z,57.94
2022-09-25T12:45:52.724Z,57.86
2022-09-25T12:48:33.107Z,57.83
2022-09-25T12:51:16.483Z,57.81
2022-09-25T12:53:49.049Z,57.75
2022-09-25T12:56:27.909Z,57.87
2022-09-25T12:59:17.352Z,57.89
2022-09-25T13:02:07.869Z,58.15
2022-09-25T13:05:15.908Z,57.86
2022-09-25T13:07:59.573Z,57.93
2022-09-25T13:10:38.390Z,57.98
2022-09-25T13:13:21.280Z,57.98
2022-09-25T13:15:54.860Z,58.13
2022-09-25T13:18:26.155Z,58.01
2022-09-25T13:21:04.373Z,58.08
2022-09-25T13:23:42.033Z,57.98
2022-09-25T13:26:33.755Z,57.94
2022-09-25T13:29:14.722Z,58.05
2022-09-25T13:31:46.172Z,58.04
2022-09-25T13:34:17.645Z,57.95
2022-09-25T13:36:48.738Z,57.97
2022-09-25T13:39:44.098Z,57.89
2022-09-25T13:42:33.367Z,58.03
2022-09-25T13:45:23.007Z,57.87
2022-09-25T13:48:07.479Z,58.20
2022-09-25T13:50:41.593Z,57.91
2022-09-25T13:53:18.139Z,57.98
2022-09-25T13:55:55.474Z,58.08
2022-09-25T13:58:26.102Z,58.01
2022-09-25T14:00:58.282Z,58.00
2022-09-25T14:03:46.797Z,58.11
2022-09-25T14:06:42.075Z,58.18
2022-09-25T14:09:19.062Z,58.15
2022-09-25T14:12:01.103Z,58.25
2022-09-25T14:14:46.276Z,58.14
2022-09-25T14:17:17.700Z,58.03
2022-09-25T14:19:51.516Z,58.14
2022-09-25T14:22:21.633Z,58.00
2022-09-25T14:24:50.583Z,57.89
2022-09-25T14:27:24.091Z,58.07
2022-09-25T14:29:52.194Z,57.87
2022-09-25T14:32:55.186Z,57.94
2022-09-25T14:35:39.411Z,57.92
2022-09-25T14:38:25.785Z,58.05
2022-09-25T14:41:01.556Z,57.95
2022-09-25T14:44:02.535Z,58.03
2022-09-25T14:46:34.345Z,58.01
2022-09-25T14:49:21.195Z,58.03
2022-09-25T14:51:49.206Z,58.04
2022-09-25T14:54:25.592Z,58.13
2022-09-25T14:56:59.266Z,58.00
2022-09-25T14:59:47.032Z,58.11
2022-09-25T15:02:24.474Z,58.10
2022-09-25T15:04:58.410Z,58.18
2022-09-25T15:07:29.124Z,58.25
2022-09-25T15:10:00.300Z,58.19
2022-09-25T15:12:36.389Z,58.26
2022-09-25T15:15:14.762Z,58.27
2022-09-25T15:17:51.355Z,58.15
2022-09-25T15:20:26.673Z,58.21
2022-09-25T15:23:02.574Z,58.07
2022-09-25T15:25:52.637Z,58.14
2022-09-25T15:28:26.126Z,58.28
2022-09-25T15:31:04.157Z,58.28
2022-09-25T15:33:37.482Z,58.48
2022-09-25T15:36:25.501Z,58.43
2022-09-25T15:39:00.223Z,58.35
2022-09-25T15:41:30.243Z,58.34
2022-09-25T15:44:25.617Z,58.40
2022-09-25T15:46:59.177Z,58.39
2022-09-25T15:49:45.306Z,58.57
2022-09-25T15:52:35.946Z,58.57
2022-09-25T15:55:14.732Z,58.68
2022-09-25T15:57:46.904Z,58.79
2022-09-25T16:00:47.112Z,58.85
2022-09-25T16:03:42.298Z,58.96
2022-09-25T16:06:18.779Z,58.99
2022-09-25T16:08:48.576Z,58.92
2022-09-25T16:11:22.875Z,58.96
2022-09-25T16:14:12.215Z,59.17
2022-09-25T16:16:50.545Z,59.17
2022-09-25T16:19:27.846Z,59.21
2022-09-25T16:22:00.308Z,59.26
2022-09-25T16:24:29.793Z,59.09
2022-09-25T16:27:01.498Z,59.23
2022-09-25T16:29:36.693Z,59.20
2022-09-25T16:32:21.307Z,59.22
2022-09-25T16:35:24.013Z,59.28
2022-09-25T16:37:55.827Z,59.48
2022-09-25T16:40:26.344Z,59.43
2022-09-25T16:42:59.767Z,59.66
2022-09-25T16:45:35.542Z,59.65
2022-09-25T16:48:27.717Z,59.80
2022-09-25T16:50:58.789Z,59.82
2022-09-25T16:53:28.980Z,59.76
2022-09-25T16:56:01.572Z,59.98
2022-09-25T16:58:29.586Z,59.91
2022-09-25T17:00:59.487Z,59.79
2022-09-25T17:03:47.885Z,60.01
2022-09-25T17:06:23.812Z,60.12
2022-09-25T17:08:55.334Z,60.15
2022-09-25T17:11:23.566Z,60.19
2022-09-25T17:13:53.306Z,60.29
2022-09-25T17:16:21.186Z,60.44
2022-09-25T17:18:49.215Z,60.51
2022-09-25T17:21:17.338Z,60.58
2022-09-25T17:23:48.884Z,60.69
2022-09-25T17:26:23.581Z,60.78
2022-09-25T17:28:51.941Z,60.73
2022-09-25T17:31:23.660Z,60.83
2022-09-25T17:33:51.832Z,60.79
2022-09-25T17:36:20.710Z,60.99
2022-09-25T17:38:48.795Z,61.07
2022-09-25T17:41:30.361Z,61.11
2022-09-25T17:44:03.370Z,61.15
2022-09-25T17:46:34.665Z,61.09
2022-09-25T17:49:07.014Z,61.19
2022-09-25T17:51:37.261Z,61.37
2022-09-25T17:54:06.867Z,61.32
2022-09-25T17:56:39.958Z,61.40
2022-09-25T17:59:12.320Z,61.51
2022-09-25T18:01:40.548Z,61.47
2022-09-25T18:04:21.441Z,61.62
2022-09-25T18:06:49.266Z,61.58
2022-09-25T18:09:19.054Z,61.88
2022-09-25T18:11:47.693Z,61.76
2022-09-25T18:14:17.431Z,61.82
2022-09-25T18:16:48.776Z,61.91
2022-09-25T18:19:40.189Z,61.93
2022-09-25T18:22:19.395Z,62.06
2022-09-25T18:24:58.356Z,62.14
2022-09-25T18:27:32.516Z,62.22
2022-09-25T18:30:04.429Z,62.19
2022-09-25T18:32:34.412Z,62.28
2022-09-25T18:35:03.038Z,62.35
2022-09-25T18:37:34.499Z,62.32
2022-09-25T18:40:10.004Z,62.40
2022-09-25T18:42:39.062Z,62.34
2022-09-25T18:45:12.333Z,62.50
2022-09-25T18:47:45.300Z,62.54
2022-09-25T18:50:20.947Z,62.50
2022-09-25T18:52:49.062Z,62.63
2022-09-25T18:55:17.910Z,62.56
2022-09-25T18:57:45.773Z,62.59
2022-09-25T19:00:14.052Z,62.69
2022-09-25T19:02:43.295Z,62.65
2022-09-25T19:05:12.635Z,62.74
2022-09-25T19:07:42.255Z,62.79
2022-09-25T19:10:11.610Z,62.92
2022-09-25T19:12:40.388Z,63.09
2022-09-25T19:15:10.459Z,63.28
2022-09-25T19:17:38.161Z,63.09
2022-09-25T19:20:08.463Z,63.14
2022-09-25T19:22:37.161Z,63.15
2022-09-25T19:25:06.302Z,63.18
2022-09-25T19:27:34.368Z,63.28
2022-09-25T19:30:02.099Z,63.15
2022-09-25T19:32:30.821Z,63.49
2022-09-25T19:35:00.316Z,63.63
2022-09-25T19:37:33.481Z,63.75
2022-09-25T19:40:20.871Z,63.78
2022-09-25T19:42:50.802Z,63.89
2022-09-25T19:45:20.726Z,63.84
2022-09-25T19:47:49.311Z,63.99
2022-09-25T19:50:19.540Z,63.92
2022-09-25T19:52:51.067Z,63.83
2022-09-25T19:55:20.512Z,64.09
2022-09-25T19:57:48.572Z,64.06
2022-09-25T20:00:18.358Z,64.13
2022-09-25T20:02:47.772Z,64.24
2022-09-25T20:05:17.938Z,64.25
2022-09-25T20:07:46.288Z,64.30
2022-09-25T20:10:15.303Z,64.33
2022-09-25T20:12:43.219Z,64.27
2022-09-25T20:15:11.613Z,64.29
2022-09-25T20:17:39.751Z,64.43
2022-09-25T20:20:08.855Z,64.64
2022-09-25T20:22:36.987Z,64.65
2022-09-25T20:25:06.210Z,64.67
2022-09-25T20:27:34.394Z,64.74
2022-09-25T20:30:02.363Z,64.73
2022-09-25T20:32:32.415Z,64.78
2022-09-25T20:35:00.767Z,64.85
2022-09-25T20:37:29.309Z,64.90
2022-09-25T20:39:57.447Z,64.98
2022-09-25T20:42:25.920Z,65.02
2022-09-25T20:44:56.080Z,65.07
2022-09-25T20:47:24.064Z,64.98
2022-09-25T20:49:52.814Z,65.03
2022-09-25T20:52:20.741Z,65.00
2022-09-25T20:54:49.141Z,65.07
2022-09-25T20:57:17.282Z,65.20
2022-09-25T20:59:44.975Z,65.17
2022-09-25T21:02:14.315Z,65.23
2022-09-25T21:04:46.432Z,65.34
2022-09-25T21:07:16.963Z,65.60
2022-09-25T21:09:46.226Z,65.68
2022-09-25T21:12:15.313Z,65.73
2022-09-25T21:14:43.044Z,65.53
2022-09-25T21:17:11.485Z,65.59
2022-09-25T21:19:40.598Z,65.63
2022-09-25T21:22:08.871Z,65.81
2022-09-25T21:24:37.464Z,66.02
2022-09-25T21:27:06.263Z,66.10
2022-09-25T21:29:34.332Z,66.18
2022-09-25T21:32:03.892Z,65.95
2022-09-25T21:34:32.365Z,65.89
2022-09-25T21:37:00.779Z,66.29
2022-09-25T21:39:29.128Z,66.34
2022-09-25T21:41:57.054Z,66.31
2022-09-25T21:44:26.670Z,66.38
2022-09-25T21:46:54.827Z,66.47
2022-09-25T21:49:22.715Z,66.53
2022-09-25T21:51:51.382Z,66.52
2022-09-25T21:54:21.603Z,66.78
2022-09-25T21:56:49.347Z,66.74
2022-09-25T21:59:18.917Z,66.92
2022-09-25T22:01:49.515Z,66.97
2022-09-25T22:04:17.971Z,66.99
2022-09-25T22:06:48.914Z,66.75
2022-09-25T22:09:20.538Z,67.01
2022-09-25T22:11:51.836Z,67.17
2022-09-25T22:14:21.887Z,66.97
2022-09-25T22:16:53.402Z,67.08
2022-09-25T22:19:26.254Z,67.11
2022-09-25T22:21:58.628Z,67.08
2022-09-25T22:24:27.762Z,67.23
2022-09-25T22:26:56.759Z,67.29
2022-09-25T22:29:27.460Z,67.46
2022-09-25T22:31:55.385Z,67.29
2022-09-25T22:34:28.253Z,67.38
2022-09-25T22:37:00.036Z,67.66
2022-09-25T22:39:31.714Z,67.55
2022-09-25T22:42:00.308Z,67.47
2022-09-25T22:44:28.887Z,67.68
2022-09-25T22:46:58.252Z,67.85
2022-09-25T22:49:26.874Z,67.87
2022-09-25T22:51:55.510Z,67.99
2022-09-25T22:54:23.242Z,67.85
2022-09-25T22:56:53.560Z,67.80
2022-09-25T22:59:22.150Z,67.97
2022-09-25T23:01:54.585Z,67.88
2022-09-25T23:04:24.819Z,68.11
2022-09-25T23:06:53.555Z,68.25
2022-09-25T23:09:27.363Z,68.16
2022-09-25T23:11:57.593Z,68.17
2022-09-25T23:14:30.485Z,68.21
2022-09-25T23:17:03.501Z,68.45
2022-09-25T23:19:32.269Z,68.53
2022-09-25T23:22:00.981Z,68.66
2022-09-25T23:24:28.957Z,68.48
2022-09-25T23:26:56.971Z,68.58
2022-09-25T23:29:24.932Z,68.67
2022-09-25T23:31:53.536Z,68.79
2022-09-25T23:34:22.603Z,68.83
2022-09-25T23:36:50.548Z,68.78
2022-09-25T23:39:20.340Z,68.79
2022-09-25T23:41:49.007Z,68.89
2022-09-25T23:44:18.249Z,68.93
2022-09-25T23:46:47.670Z,68.92
2022-09-25T23:49:15.817Z,69.12
2022-09-25T23:51:46.945Z,69.05
2022-09-25T23:54:15.701Z,68.80
2022-09-25T23:56:44.910Z,68.96
2022-09-25T23:59:14.013Z,68.94
